createdAt,value
2022-09-07T00:02:33.813Z,20.63
2022-09-07T00:07:36.332Z,21.19
2022-09-07T00:12:38.849Z,21.55
2022-09-07T00:17:42.815Z,20.58
2022-09-07T00:22:46.720Z,20.47
2022-09-07T00:27:49.148Z,20.70
2022-09-07T00:32:51.721Z,21.29
2022-09-07T00:37:54.276Z,21.43
2022-09-07T00:42:56.781Z,20.85
2022-09-07T00:48:09.433Z,21.12
2022-09-07T00:53:35.002Z,20.58
2022-09-07T00:58:40.314Z,20.85
2022-09-07T01:03:49.781Z,19.71
2022-09-07T01:08:52.845Z,19.57
2022-09-07T01:13:55.984Z,19.21
2022-09-07T01:19:12.856Z,19.45
2022-09-07T01:24:41.500Z,19.85
2022-09-07T01:29:56.374Z,21.00
2022-09-07T01:35:02.977Z,20.70
2022-09-07T01:40:25.492Z,20.92
2022-09-07T01:45:33.761Z,20.54
2022-09-07T01:50:50.262Z,20.52
2022-09-07T01:56:09.040Z,20.60
2022-09-07T02:01:15.837Z,20.27
2022-09-07T02:06:23.752Z,20.41
2022-09-07T02:11:36.999Z,20.10
2022-09-07T02:16:48.893Z,20.11
2022-09-07T02:22:00.113Z,19.76
2022-09-07T02:27:08.396Z,20.28
2022-09-07T02:32:10.873Z,20.17
2022-09-07T02:37:15.478Z,20.19
2022-09-07T02:42:17.838Z,20.34
2022-09-07T02:47:23.080Z,20.25
2022-09-07T02:52:34.576Z,19.83
2022-09-07T02:57:48.593Z,19.85
2022-09-07T03:03:13.533Z,20.28
2022-09-07T03:08:31.987Z,20.29
2022-09-07T03:13:34.890Z,19.89
2022-09-07T03:18:37.226Z,20.19
2022-09-07T03:23:39.871Z,20.36
2022-09-07T03:28:42.215Z,20.49
2022-09-07T03:33:44.562Z,20.59
2022-09-07T03:38:46.964Z,20.06
2022-09-07T03:43:49.605Z,20.64
2022-09-07T03:48:52.110Z,20.67
2022-09-07T03:53:55.331Z,19.88
2022-09-07T03:58:58.046Z,20.34
2022-09-07T04:04:03.036Z,20.24
2022-09-07T04:09:07.333Z,20.30
2022-09-07T04:14:11.503Z,20.46
2022-09-07T04:19:14.175Z,20.23
2022-09-07T04:24:17.704Z,20.25
2022-09-07T04:29:20.246Z,20.42
2022-09-07T04:34:22.668Z,20.33
2022-09-07T04:39:25.283Z,20.46
2022-09-07T04:44:27.837Z,20.29
2022-09-07T04:49:30.193Z,20.67
2022-09-07T04:54:36.928Z,20.48
2022-09-07T04:59:42.400Z,20.52
2022-09-07T05:04:48.226Z,20.78
2022-09-07T05:09:50.710Z,20.07
2022-09-07T05:14:53.096Z,20.39
2022-09-07T05:19:55.731Z,20.37
2022-09-07T05:24:58.220Z,20.15
2022-09-07T05:35:23.010Z,20.43
2022-09-07T05:40:25.699Z,20.84
2022-09-07T05:45:28.307Z,21.11
2022-09-07T05:50:30.646Z,21.07
2022-09-07T05:55:32.996Z,21.21
2022-09-07T06:00:35.506Z,21.20
2022-09-07T06:05:39.250Z,21.20
2022-09-07T06:15:45.017Z,21.52
2022-09-07T06:20:47.365Z,21.38
2022-09-07T06:25:50.323Z,21.34
2022-09-07T06:30:52.660Z,21.65
2022-09-07T06:35:59.346Z,21.75
2022-09-07T06:51:49.456Z,22.05
2022-09-07T06:56:51.944Z,21.79
2022-09-07T07:01:54.297Z,22.23
2022-09-07T07:06:56.712Z,22.19
2022-09-07T07:11:59.154Z,22.36
2022-09-07T07:17:01.549Z,22.47
2022-09-07T07:22:29.645Z,22.62
2022-09-07T07:27:26.631Z,22.95
2022-09-07T07:32:29.082Z,22.57
2022-09-07T07:37:32.843Z,22.46
2022-09-07T07:42:36.323Z,23.16
2022-09-07T07:47:38.959Z,23.64
2022-09-07T07:58:03.662Z,23.86
2022-09-07T08:03:06.077Z,24.21
2022-09-07T08:08:08.390Z,24.05
2022-09-07T08:13:10.885Z,24.35
2022-09-07T08:18:16.162Z,23.79
2022-09-07T08:23:21.086Z,24.60
2022-09-07T08:28:24.170Z,24.79
2022-09-07T08:33:26.707Z,24.80
2022-09-07T08:38:33.916Z,24.75
2022-09-07T08:43:49.454Z,25.05
2022-09-07T08:48:52.452Z,24.93
2022-09-07T08:53:55.028Z,25.45
2022-09-07T08:58:57.958Z,25.63
2022-09-07T09:04:17.883Z,25.61
2022-09-07T09:09:32.458Z,25.67
2022-09-07T09:14:47.128Z,25.79
2022-09-07T09:19:52.189Z,25.78
2022-09-07T09:25:06.380Z,25.64
2022-09-07T09:30:34.800Z,25.77
2022-09-07T09:35:38.066Z,25.63
2022-09-07T09:40:46.464Z,25.52
2022-09-07T09:56:44.943Z,26.17
2022-09-07T10:07:29.164Z,25.88
2022-09-07T10:12:37.270Z,26.05
2022-09-07T10:17:43.795Z,25.86
2022-09-07T10:22:55.031Z,26.09
2022-09-07T10:28:13.254Z,26.24
2022-09-07T10:33:41.640Z,26.52
2022-09-07T10:38:59.938Z,26.56
2022-09-07T10:44:05.214Z,26.95
2022-09-07T10:49:30.113Z,26.96
2022-09-07T10:54:48.387Z,26.88
2022-09-07T11:00:08.274Z,27.00
2022-09-07T11:05:44.895Z,27.18
2022-09-07T11:11:17.578Z,27.27
2022-09-07T11:22:23.273Z,27.68
2022-09-07T11:27:46.279Z,27.57
2022-09-07T11:33:16.800Z,27.85
2022-09-07T11:38:26.180Z,27.97
2022-09-07T11:43:42.480Z,27.88
2022-09-07T11:48:57.373Z,28.14
2022-09-07T11:54:16.672Z,28.08
2022-09-07T12:00:01.221Z,27.91
2022-09-07T12:05:50.678Z,28.11
2022-09-07T12:11:07.825Z,28.17
2022-09-07T12:16:37.850Z,28.33
2022-09-07T12:21:45.397Z,28.42
2022-09-07T12:26:50.809Z,28.49
2022-09-07T12:32:00.744Z,28.70
2022-09-07T12:37:12.530Z,28.70
2022-09-07T12:42:38.681Z,28.82
2022-09-07T12:47:41.255Z,29.06
2022-09-07T12:52:43.663Z,29.29
2022-09-07T12:58:12.027Z,29.28
2022-09-07T13:09:21.765Z,29.53
2022-09-07T13:14:29.322Z,29.56
2022-09-07T13:19:46.920Z,29.70
2022-09-07T13:24:56.850Z,29.53
2022-09-07T13:30:17.473Z,29.81
2022-09-07T13:35:32.460Z,29.85
2022-09-07T13:40:39.842Z,30.09
2022-09-07T13:45:59.495Z,30.44
2022-09-07T13:51:19.268Z,30.72
2022-09-07T13:56:27.480Z,30.72
2022-09-07T14:01:30.191Z,30.72
2022-09-07T14:06:34.113Z,30.78
2022-09-07T14:11:54.614Z,30.55
2022-09-07T14:17:15.015Z,30.81
2022-09-07T14:22:28.724Z,30.98
2022-09-07T14:27:38.220Z,32.24
2022-09-07T14:32:42.096Z,31.93
2022-09-07T14:37:46.168Z,32.67
2022-09-07T14:42:50.948Z,33.16
2022-09-07T14:47:57.127Z,33.21
2022-09-07T14:58:32.322Z,34.00
2022-09-07T15:03:55.843Z,34.37
2022-09-07T15:08:58.576Z,34.50
2022-09-07T15:14:12.970Z,34.44
2022-09-07T15:19:19.105Z,34.66
2022-09-07T15:24:21.546Z,34.59
2022-09-07T15:29:24.485Z,34.52
2022-09-07T15:34:27.146Z,34.12
2022-09-07T15:39:35.711Z,33.97
2022-09-07T15:44:38.173Z,33.68
2022-09-07T15:49:47.402Z,33.21
2022-09-07T15:54:51.916Z,33.00
2022-09-07T15:59:54.366Z,31.92
2022-09-07T16:04:56.861Z,31.27
2022-09-07T16:10:02.394Z,31.46
2022-09-07T16:15:06.651Z,30.52
2022-09-07T16:20:10.696Z,30.54
2022-09-07T16:25:14.683Z,29.85
2022-09-07T16:30:17.416Z,28.67
2022-09-07T16:35:19.909Z,28.15
2022-09-07T16:40:22.323Z,27.79
2022-09-07T16:51:00.577Z,27.23
2022-09-07T16:56:09.909Z,26.84
2022-09-07T17:01:20.412Z,26.49
2022-09-07T17:06:25.519Z,26.38
2022-09-07T17:11:31.789Z,26.42
2022-09-07T17:16:37.650Z,25.41
2022-09-07T17:21:41.106Z,25.76
2022-09-07T17:26:43.881Z,24.38
2022-09-07T17:37:09.255Z,25.78
2022-09-07T17:42:11.908Z,25.55
2022-09-07T17:47:14.619Z,25.70
2022-09-07T17:52:17.097Z,25.11
2022-09-07T17:57:20.023Z,24.51
2022-09-07T18:02:22.502Z,25.12
2022-09-07T18:07:25.020Z,25.32
2022-09-07T18:12:27.542Z,25.32
2022-09-07T18:17:30.118Z,25.00
2022-09-07T18:22:34.769Z,25.23
2022-09-07T18:27:37.471Z,24.98
2022-09-07T18:32:39.861Z,24.87
2022-09-07T18:37:42.441Z,24.24
2022-09-07T18:42:44.911Z,24.40
2022-09-07T18:47:47.810Z,24.23
2022-09-07T18:52:52.068Z,24.55
2022-09-07T18:57:55.707Z,24.21
2022-09-07T19:02:58.249Z,24.54
2022-09-07T19:08:03.766Z,24.09
2022-09-07T19:13:06.142Z,24.41
2022-09-07T19:18:08.695Z,24.01
2022-09-07T19:23:11.206Z,24.15
2022-09-07T19:28:33.041Z,23.96
2022-09-07T19:33:38.194Z,23.08
2022-09-07T19:38:43.043Z,23.60
2022-09-07T19:43:46.857Z,23.31
2022-09-07T19:48:49.507Z,23.56
2022-09-07T19:53:51.928Z,23.45
2022-09-07T19:58:54.536Z,23.31
2022-09-07T20:03:59.694Z,22.51
2022-09-07T20:09:02.585Z,22.46
2022-09-07T20:14:05.109Z,22.37
2022-09-07T20:19:08.305Z,22.46
2022-09-07T20:24:15.120Z,22.25
2022-09-07T20:29:33.266Z,23.15
2022-09-07T20:34:35.803Z,22.56
2022-09-07T20:39:39.553Z,22.98
2022-09-07T20:44:42.325Z,22.83
2022-09-07T20:49:44.754Z,22.53
2022-09-07T20:54:47.213Z,22.71
2022-09-07T20:59:49.662Z,22.65
2022-09-07T21:04:51.970Z,22.36
2022-09-07T21:09:54.256Z,22.58
2022-09-07T21:14:56.648Z,22.05
2022-09-07T21:19:59.357Z,22.37
2022-09-07T21:25:02.824Z,22.13
2022-09-07T21:30:06.453Z,22.39
2022-09-07T21:35:10.741Z,22.23
2022-09-07T21:40:13.471Z,21.72
2022-09-07T21:45:15.975Z,21.96
2022-09-07T21:50:18.395Z,21.71
2022-09-07T21:55:21.059Z,21.71
2022-09-07T22:00:23.477Z,21.75
2022-09-07T22:05:26.177Z,21.78
2022-09-07T22:10:28.647Z,21.81
2022-09-07T22:15:34.143Z,21.83
2022-09-07T22:20:36.675Z,21.64
2022-09-07T22:25:39.001Z,21.72
2022-09-07T22:30:42.283Z,21.40
2022-09-07T22:35:44.712Z,21.36
2022-09-07T22:40:47.084Z,21.37
2022-09-07T22:45:49.475Z,21.37
2022-09-07T22:50:56.518Z,21.26
2022-09-07T22:55:59.775Z,21.12
2022-09-07T23:01:02.574Z,21.18
2022-09-07T23:06:05.187Z,21.14
2022-09-07T23:11:07.512Z,21.06
2022-09-07T23:16:10.032Z,20.74
2022-09-07T23:21:12.431Z,20.89
2022-09-07T23:26:14.747Z,21.03
2022-09-07T23:31:17.125Z,20.65
2022-09-07T23:36:20.528Z,20.97
2022-09-07T23:41:23.888Z,19.95
2022-09-07T23:46:26.516Z,20.55
2022-09-07T23:51:29.137Z,20.62
2022-09-07T23:56:33.135Z,20.94
